Air Navigation Services of Czech Republic
Airport: LKPR Updated:  03.12.2021 18:37:28  UTC
 METAR LKPR 03.12. 18:30 ...
METAR LKPR 031830Z 20009KT CAVOK M01/M04 Q1011 NOSIG RMK REG QNH 1006=
 TAF LKPR 03.12. 17:00 ...
TAF LKPR 031700Z 0318/0500 21008KT CAVOK      TEMPO 0318/0323 22012G26KT      BECMG 0405/0407 9999 BKN030      TEMPO 0407/0412 5000 -SN OVC012      PROB30 TEMPO 0408/0411 2500 SN OVC008      PROB30 TEMPO 0412/0419 1500 RA BR OVC006      BECMG 0419/0421 5000 BR NSC=